Time;durP1;ratioP1;P1;durP2;ratioP2;P2;SDS_P1;SDS_P2;PMS_P1;PMS_P2;Temp;Humidity;BMP_temperature;BMP_pressure;BME280_temperature;BME280_humidity;BME280_pressure;Samples;Min_cycle;Max_cycle;Signal;HPM_P1;HPM_P2
2020/12/03 00:01:11;;;;;;;37.88;19.92;;;3.20;99.90;;;;;;4973265;28;20029;-78
2020/12/03 00:04:05;;;;;;;40.20;21.83;;;3.20;99.90;;;;;;4975496;28;20093;-78
2020/12/03 00:06:32;;;;;;;45.20;21.10;;;2.90;99.90;;;;;;4970132;28;20037;-78
2020/12/03 00:09:00;;;;;;;43.10;21.43;;;3.00;99.90;;;;;;4972563;28;20034;-77
2020/12/03 00:11:29;;;;;;;37.72;19.50;;;2.10;99.90;;;;;;4972476;28;20021;-78
2020/12/03 00:13:55;;;;;;;35.45;19.50;;;2.30;99.90;;;;;;4973991;28;20031;-78
2020/12/03 00:16:22;;;;;;;36.85;19.55;;;2.50;99.90;;;;;;4975313;28;20027;-77
2020/12/03 00:18:47;;;;;;;38.22;20.88;;;2.50;99.90;;;;;;4978335;28;20244;-78
2020/12/03 00:21:13;;;;;;;41.22;21.33;;;2.50;99.90;;;;;;4978324;28;20142;-77
2020/12/03 00:23:41;;;;;;;42.65;22.00;;;2.50;99.90;;;;;;4978209;28;20109;-77
2020/12/03 00:26:08;;;;;;;40.83;21.77;;;2.30;99.90;;;;;;4976163;28;20029;-78
2020/12/03 00:28:36;;;;;;;40.80;22.60;;;1.90;99.90;;;;;;4977747;28;20023;-78
2020/12/03 00:31:03;;;;;;;42.95;22.23;;;2.00;99.90;;;;;;4976019;28;20267;-77
2020/12/03 00:33:29;;;;;;;43.08;22.13;;;;;;;;;;4975510;28;20047;-76
2020/12/03 00:35:55;;;;;;;42.58;22.02;;;1.80;99.90;;;;;;4974709;28;20054;-78
2020/12/03 00:38:22;;;;;;;44.88;23.10;;;1.70;99.90;;;;;;4975283;28;20107;-76
2020/12/03 00:40:49;;;;;;;41.90;22.63;;;1.70;99.90;;;;;;4990632;28;20130;-77
2020/12/03 00:43:16;;;;;;;41.28;21.75;;;1.60;99.90;;;;;;4973715;28;20043;-78
2020/12/03 00:45:43;;;;;;;46.92;23.00;;;;;;;;;;4973040;28;20023;-77
2020/12/03 00:48:09;;;;;;;42.58;23.38;;;;;;;;;;4974561;28;20513;-77
2020/12/03 00:50:35;;;;;;;45.10;22.65;;;;;;;;;;4973594;28;20464;-78
2020/12/03 00:53:01;;;;;;;47.42;24.08;;;;;;;;;;4973893;28;20073;-77
2020/12/03 00:55:27;;;;;;;48.83;24.20;;;;;;;;;;4973641;28;20030;-79
2020/12/03 00:57:53;;;;;;;52.50;25.80;;;;;;;;;;4973981;28;20093;-77
2020/12/03 01:00:20;;;;;;;48.42;24.65;;;;;;;;;;4974065;28;20027;-77
2020/12/03 01:02:47;;;;;;;47.92;24.60;;;;;;;;;;4988708;28;20825;-76
2020/12/03 01:05:13;;;;;;;49.50;25.15;;;;;;;;;;4988837;28;20054;-78
2020/12/03 01:07:39;;;;;;;48.22;24.13;;;1.60;99.90;;;;;;4989681;28;20023;-78
2020/12/03 01:10:26;;;;;;;46.22;24.98;;;1.60;99.90;;;;;;4973560;28;20029;-78
2020/12/03 01:12:52;;;;;;;;;;;1.70;99.90;;;;;;4973089;28;20085;-75
2020/12/03 01:15:19;;;;;;;48.55;24.73;;;1.70;99.90;;;;;;4972414;28;19906;-78
2020/12/03 01:17:44;;;;;;;45.65;24.38;;;1.70;99.90;;;;;;4975197;28;20453;-75
2020/12/03 01:20:30;;;;;;;48.38;24.92;;;1.70;99.90;;;;;;4992401;28;20031;-78
2020/12/03 01:22:56;;;;;;;42.88;24.20;;;1.70;99.90;;;;;;4976405;28;20027;-76
2020/12/03 01:25:24;;;;;;;46.10;24.60;;;1.60;99.90;;;;;;4975091;28;20030;-78
2020/12/03 01:27:51;;;;;;;48.10;24.38;;;1.60;99.90;;;;;;4990923;28;20019;-79
2020/12/03 01:30:18;;;;;;;36.15;18.60;;;1.40;99.90;;;;;;4976880;28;20081;-79
2020/12/03 01:32:44;;;;;;;42.50;22.58;;;1.40;99.90;;;;;;4975976;28;20033;-79
2020/12/03 01:35:13;;;;;;;42.20;22.65;;;1.60;99.90;;;;;;4977057;28;20052;-78
2020/12/03 01:37:39;;;;;;;42.63;22.58;;;1.80;99.90;;;;;;4975479;28;20030;-79
2020/12/03 01:40:07;;;;;;;37.90;20.77;;;1.90;99.90;;;;;;4991752;28;20026;-78
2020/12/03 01:42:38;;;;;;;43.15;22.42;;;2.20;99.90;;;;;;4976511;28;20041;-79
2020/12/03 01:45:43;;;;;;;42.22;21.35;;;2.30;99.90;;;;;;4976169;28;20109;-78
2020/12/03 01:48:20;;;;;;;37.58;20.55;;;2.50;99.90;;;;;;4991175;28;20034;-76
2020/12/03 01:50:46;;;;;;;;;;;2.50;99.90;;;;;;4991753;28;20023;-78
2020/12/03 01:53:16;;;;;;;37.38;20.52;;;2.60;99.90;;;;;;4976405;28;19924;-78
2020/12/03 01:55:41;;;;;;;39.50;21.38;;;2.60;99.90;;;;;;4976409;28;20058;-78
2020/12/03 01:58:19;;;;;;;40.10;20.67;;;2.50;99.90;;;;;;4976014;28;20735;-78
2020/12/03 02:00:44;;;;;;;;;;;2.50;99.90;;;;;;4977134;28;20034;-78
2020/12/03 02:03:10;;;;;;;40.13;20.50;;;2.40;99.90;;;;;;4975572;28;19910;-76
2020/12/03 02:05:35;;;;;;;41.00;21.48;;;2.50;99.90;;;;;;4976361;28;20026;-78
2020/12/03 02:08:01;;;;;;;39.13;20.48;;;2.50;99.90;;;;;;4974749;28;20030;-78
2020/12/03 02:10:26;;;;;;;44.53;21.95;;;2.50;99.90;;;;;;4975541;28;20407;-78
2020/12/03 02:12:52;;;;;;;41.03;21.58;;;2.40;99.90;;;;;;4975415;28;20153;-76
2020/12/03 02:15:20;;;;;;;43.80;21.48;;;2.20;99.90;;;;;;4989864;28;20114;-77
2020/12/03 02:17:46;;;;;;;;;;;2.20;99.90;;;;;;4975365;28;20145;-77
2020/12/03 02:20:15;;;;;;;41.08;20.08;;;1.90;99.90;;;;;;4975217;28;20080;-78
2020/12/03 02:22:41;;;;;;;42.88;21.20;;;;;;;;;;4974467;28;20037;-78
2020/12/03 02:25:08;;;;;;;45.05;21.50;;;;;;;;;;4975033;28;20031;-78
2020/12/03 02:27:35;;;;;;;45.50;21.95;;;;;;;;;;4990419;28;20517;-77
2020/12/03 02:30:01;;;;;;;44.40;22.08;;;;;;;;;;4988480;28;20027;-77
2020/12/03 02:32:27;;;;;;;44.42;22.10;;;;;;;;;;4990197;28;20501;-78
2020/12/03 02:34:53;;;;;;;48.42;22.75;;;;;;;;;;4974657;28;20034;-78
2020/12/03 02:37:19;;;;;;;40.28;21.75;;;;;;;;;;4989663;28;20113;-78
2020/12/03 02:39:45;;;;;;;43.33;22.92;;;;;;;;;;4989643;28;20023;-76
2020/12/03 02:42:12;;;;;;;42.38;21.65;;;;;;;;;;4975862;28;20030;-78
2020/12/03 02:44:43;;;;;;;40.13;21.57;;;;;;;;;;4975333;28;20058;-78
2020/12/03 02:47:10;;;;;;;43.33;21.17;;;;;;;;;;4975193;28;20746;-76
2020/12/03 02:49:41;;;;;;;40.00;21.02;;;;;;;;;;4989628;28;20058;-78
2020/12/03 02:52:07;;;;;;;43.45;22.17;;;;;;;;;;4974964;28;20019;-79
2020/12/03 02:54:33;;;;;;;40.13;21.10;;;;;;;;;;4974838;28;20738;-79
2020/12/03 02:56:58;;;;;;;47.50;23.50;;;1.90;99.90;;;;;;4974773;28;20035;-79
2020/12/03 02:59:24;;;;;;;48.20;23.15;;;1.80;99.90;;;;;;4972718;28;20522;-79
2020/12/03 03:01:53;;;;;;;43.25;22.60;;;1.50;99.90;;;;;;4992250;28;20081;-78
2020/12/03 03:04:18;;;;;;;42.70;22.60;;;1.70;99.90;;;;;;4976645;28;20401;-78
2020/12/03 03:06:44;;;;;;;44.00;23.42;;;1.70;99.90;;;;;;4975285;28;20117;-78
2020/12/03 03:09:09;;;;;;;37.67;20.73;;;1.70;99.90;;;;;;4977489;28;20039;-77
2020/12/03 03:11:36;;;;;;;40.65;21.33;;;1.90;99.90;;;;;;4977395;28;20049;-78
2020/12/03 03:14:02;;;;;;;38.50;20.25;;;2.10;99.90;;;;;;4977507;28;20134;-77
2020/12/03 03:16:29;;;;;;;37.45;19.75;;;2.00;99.90;;;;;;4976490;28;20027;-77
2020/12/03 03:18:55;;;;;;;36.03;19.23;;;1.90;99.90;;;;;;4974953;28;20023;-77
2020/12/03 03:21:21;;;;;;;37.97;20.52;;;1.90;99.90;;;;;;4975603;28;20507;-78
2020/12/03 03:23:47;;;;;;;38.55;20.38;;;1.90;99.90;;;;;;4977761;28;20554;-78
2020/12/03 03:26:12;;;;;;;34.17;19.50;;;1.90;99.90;;;;;;4976774;28;20030;-78
2020/12/03 03:28:38;;;;;;;39.35;19.88;;;1.90;99.90;;;;;;4977338;28;20150;-78
2020/12/03 03:31:03;;;;;;;37.38;19.77;;;2.00;99.90;;;;;;4976213;28;20030;-78
2020/12/03 03:33:29;;;;;;;36.42;19.85;;;1.90;99.90;;;;;;4974730;28;20031;-76
2020/12/03 03:35:55;;;;;;;37.72;20.27;;;1.90;99.90;;;;;;4975421;28;20030;-77
2020/12/03 03:38:20;;;;;;;38.58;20.63;;;2.00;99.90;;;;;;4975260;28;20129;-77
2020/12/03 03:40:46;;;;;;;38.20;20.48;;;1.90;99.90;;;;;;4976780;28;20102;-77
2020/12/03 03:43:11;;;;;;;33.42;19.00;;;1.80;99.90;;;;;;4975886;28;20664;-78
2020/12/03 03:45:37;;;;;;;37.15;19.42;;;2.20;99.90;;;;;;4976509;28;20035;-78
2020/12/03 03:48:03;;;;;;;37.75;20.15;;;1.90;99.90;;;;;;4976111;28;20095;-77
2020/12/03 03:50:28;;;;;;;33.65;18.60;;;2.00;99.90;;;;;;4977101;28;20057;-77
2020/12/03 03:52:54;;;;;;;35.85;19.40;;;2.10;99.90;;;;;;4977866;28;20398;-78
2020/12/03 03:55:20;;;;;;;35.47;19.08;;;2.10;99.90;;;;;;4977348;28;20642;-78
2020/12/03 03:57:46;;;;;;;32.72;19.10;;;;;;;;;;4992547;28;20115;-77
2020/12/03 04:00:15;;;;;;;32.95;18.35;;;2.10;99.90;;;;;;4975820;28;20145;-77
2020/12/03 04:02:42;;;;;;;31.67;18.15;;;;;;;;;;4975516;28;20114;-77
2020/12/03 04:05:08;;;;;;;32.83;18.52;;;;;;;;;;4974602;28;20042;-77
2020/12/03 04:07:33;;;;;;;30.20;17.77;;;2.20;99.90;;;;;;4975230;28;20019;-78
2020/12/03 04:09:59;;;;;;;29.10;17.23;;;2.60;99.90;;;;;;4975047;28;20466;-77
2020/12/03 04:12:25;;;;;;;32.15;18.10;;;2.50;99.90;;;;;;4974280;28;20058;-78
2020/12/03 04:14:50;;;;;;;31.20;16.92;;;2.50;99.90;;;;;;4974811;28;20115;-77
2020/12/03 04:17:16;;;;;;;29.55;17.27;;;2.60;99.90;;;;;;4974057;28;20049;-75
2020/12/03 04:19:41;;;;;;;28.13;16.90;;;2.50;99.90;;;;;;4989156;28;20027;-78
2020/12/03 04:22:07;;;;;;;26.85;16.33;;;2.50;99.90;;;;;;4989431;28;20449;-77
2020/12/03 04:24:32;;;;;;;29.00;16.48;;;2.60;99.90;;;;;;4973637;28;20031;-76
2020/12/03 04:26:58;;;;;;;28.73;16.77;;;2.50;99.90;;;;;;4972918;28;20027;-78
2020/12/03 04:29:24;;;;;;;28.33;16.27;;;2.50;99.90;;;;;;4972963;28;20037;-77
2020/12/03 04:31:49;;;;;;;31.58;16.98;;;2.50;99.90;;;;;;4973389;28;20032;-76
2020/12/03 04:34:15;;;;;;;26.38;15.50;;;2.50;99.90;;;;;;4974470;28;20446;-78
2020/12/03 04:36:41;;;;;;;28.60;16.73;;;2.30;99.90;;;;;;4988719;28;20027;-78
2020/12/03 04:39:07;;;;;;;26.10;15.57;;;2.80;99.90;;;;;;4974238;28;20034;-77
2020/12/03 04:41:33;;;;;;;26.80;16.15;;;2.40;99.90;;;;;;4972353;28;20027;-76
2020/12/03 04:44:11;;;;;;;24.73;15.13;;;2.40;99.90;;;;;;4968199;28;20031;-77
2020/12/03 04:46:44;;;;;;;25.77;15.27;;;2.60;99.90;;;;;;4953573;29;20098;-76
2020/12/03 04:49:29;;;;;;;24.65;14.95;;;2.70;99.90;;;;;;4953451;29;20023;-78
2020/12/03 04:52:21;;;;;;;26.80;15.40;;;2.70;99.90;;;;;;4954593;29;20043;-75
2020/12/03 04:55:00;;;;;;;22.98;14.43;;;2.60;99.90;;;;;;4958717;29;20031;-76
2020/12/03 04:57:30;;;;;;;26.00;16.17;;;2.70;99.90;;;;;;4959359;28;20078;-77
2020/12/03 05:00:05;;;;;;;28.67;15.68;;;2.70;99.90;;;;;;4973438;28;20031;-77
2020/12/03 05:02:53;;;;;;;28.33;15.07;;;2.40;99.90;;;;;;4958203;28;20035;-77
2020/12/03 05:05:47;;;;;;;26.50;15.77;;;2.10;99.90;;;;;;4957998;28;20023;-76
2020/12/03 05:08:26;;;;;;;26.52;15.70;;;2.30;99.90;;;;;;4963764;28;20023;-77
2020/12/03 05:10:52;;;;;;;27.58;16.70;;;1.90;99.90;;;;;;4973300;28;20028;-77
2020/12/03 05:13:25;;;;;;;22.85;14.65;;;1.80;99.90;;;;;;4958077;28;20030;-77
2020/12/03 05:15:58;;;;;;;24.25;15.23;;;2.00;99.90;;;;;;4955870;28;20035;-77
2020/12/03 05:18:33;;;;;;;23.85;15.02;;;2.10;99.90;;;;;;4958023;29;20027;-77
2020/12/03 05:21:02;;;;;;;25.50;16.10;;;2.20;99.90;;;;;;4956558;29;20118;-77
2020/12/03 05:23:31;;;;;;;25.88;15.52;;;2.10;99.90;;;;;;4957760;28;20038;-75
2020/12/03 05:25:58;;;;;;;21.77;14.23;;;2.10;99.90;;;;;;4958008;28;20027;-75
2020/12/03 05:28:54;;;;;;;22.63;14.50;;;2.20;99.90;;;;;;4957877;28;20482;-77
2020/12/03 05:31:25;;;;;;;24.25;14.68;;;2.40;99.90;;;;;;4972636;28;20047;-77
2020/12/03 05:33:51;;;;;;;29.02;15.93;;;2.30;99.90;;;;;;4957996;29;20102;-78
2020/12/03 05:36:30;;;;;;;23.88;14.65;;;2.50;99.90;;;;;;4957779;28;20399;-76
2020/12/03 05:38:56;;;;;;;21.90;13.77;;;2.60;99.90;;;;;;4957596;28;20386;-76
2020/12/03 05:41:24;;;;;;;21.50;14.07;;;2.30;99.90;;;;;;4956911;28;20382;-78
2020/12/03 05:43:50;;;;;;;23.15;14.85;;;2.20;99.90;;;;;;4955245;28;20027;-76
2020/12/03 05:46:19;;;;;;;22.38;14.40;;;2.00;99.90;;;;;;4954073;28;20035;-77
2020/12/03 05:49:01;;;;;;;23.33;14.45;;;2.30;99.90;;;;;;4954884;28;20030;-76
2020/12/03 05:51:30;;;;;;;23.15;13.85;;;2.10;99.90;;;;;;4956480;28;20027;-78
2020/12/03 05:54:03;;;;;;;24.30;14.38;;;2.00;99.90;;;;;;4955894;28;20023;-74
2020/12/03 05:56:31;;;;;;;21.60;13.65;;;2.10;99.90;;;;;;4954302;28;20475;-77
2020/12/03 05:59:17;;;;;;;;;;;2.30;99.90;;;;;;4955666;29;20086;-77
2020/12/03 06:01:57;;;;;;;23.00;13.85;;;2.30;99.90;;;;;;4969700;28;20096;-76
2020/12/03 06:04:31;;;;;;;20.65;12.70;;;2.30;99.90;;;;;;4968128;28;20030;-77
2020/12/03 06:07:04;;;;;;;21.80;13.60;;;2.50;99.90;;;;;;4955183;28;20027;-77
2020/12/03 06:09:30;;;;;;;23.10;14.13;;;2.50;99.90;;;;;;4954908;29;20028;-76
2020/12/03 06:12:40;;;;;;;25.98;15.02;;;2.40;99.90;;;;;;4954687;29;20442;-77
2020/12/03 06:15:13;;;;;;;20.88;13.15;;;2.30;99.90;;;;;;4971848;28;20022;-77
2020/12/03 06:18:14;;;;;;;20.08;12.65;;;2.50;99.90;;;;;;4972125;28;20710;-78
2020/12/03 06:21:00;;;;;;;20.00;12.40;;;2.50;99.90;;;;;;4969357;28;20043;-77
2020/12/03 06:23:43;;;;;;;18.63;12.07;;;2.30;99.90;;;;;;4955443;29;20677;-77
2020/12/03 06:26:23;;;;;;;19.55;12.20;;;2.40;99.90;;;;;;4955449;29;20066;-77
2020/12/03 06:29:12;;;;;;;19.17;10.95;;;1.50;99.90;;;;;;4969666;28;20027;-77
2020/12/03 06:32:00;;;;;;;16.73;10.63;;;1.90;99.90;;;;;;4955947;29;20023;-77
2020/12/03 06:34:35;;;;;;;;;;;1.80;99.90;;;;;;4955861;28;20031;-77
2020/12/03 06:37:04;;;;;;;15.85;9.30;;;1.70;99.90;;;;;;4955910;29;19993;-77
2020/12/03 06:39:54;;;;;;;14.00;9.20;;;1.80;99.90;;;;;;4956142;28;20125;-76
2020/12/03 06:42:38;;;;;;;15.68;9.60;;;1.90;99.90;;;;;;4955831;29;20627;-77
2020/12/03 06:45:13;;;;;;;15.80;9.23;;;2.00;99.90;;;;;;4955205;29;20027;-76
2020/12/03 06:48:09;;;;;;;15.20;9.77;;;2.10;99.90;;;;;;4956049;29;20102;-76
2020/12/03 06:51:16;;;;;;;18.88;10.52;;;2.10;99.90;;;;;;4955561;28;20039;-76
2020/12/03 06:54:16;;;;;;;19.42;10.55;;;2.20;99.90;;;;;;4970518;28;20755;-77
2020/12/03 06:57:08;;;;;;;19.83;11.63;;;2.40;99.90;;;;;;4954008;28;20031;-77
2020/12/03 06:59:50;;;;;;;18.42;11.18;;;2.50;99.90;;;;;;4954270;29;20126;-74
2020/12/03 07:02:42;;;;;;;18.58;11.65;;;2.60;99.90;;;;;;4970312;28;20114;-78
2020/12/03 07:05:41;;;;;;;19.50;12.13;;;2.70;99.90;;;;;;4955289;28;20027;-76
2020/12/03 07:08:22;;;;;;;20.48;12.07;;;2.80;99.90;;;;;;4954457;29;20034;-77
2020/12/03 07:11:17;;;;;;;21.60;13.65;;;2.70;99.90;;;;;;4955445;29;20031;-76
2020/12/03 07:14:20;;;;;;;19.80;13.07;;;2.60;99.90;;;;;;4969078;28;20082;-76
2020/12/03 07:17:05;;;;;;;23.50;14.38;;;2.60;99.90;;;;;;4963333;28;20034;-77
2020/12/03 07:19:42;;;;;;;28.35;13.77;;;2.30;99.90;;;;;;4974682;28;20118;-76
2020/12/03 07:22:18;;;;;;;24.23;14.82;;;2.30;99.90;;;;;;4988912;28;20028;-76
2020/12/03 07:24:47;;;;;;;23.67;14.48;;;2.10;99.90;;;;;;4973570;28;20113;-77
2020/12/03 07:27:31;;;;;;;23.65;14.70;;;2.00;99.90;;;;;;4972990;28;20023;-77
2020/12/03 07:30:02;;;;;;;24.77;14.32;;;2.00;99.90;;;;;;4973598;28;20022;-77
2020/12/03 07:32:31;;;;;;;23.13;14.32;;;1.90;99.90;;;;;;4971758;28;20031;-74
2020/12/03 07:35:15;;;;;;;22.77;14.90;;;1.90;99.90;;;;;;4973678;28;20061;-77
2020/12/03 07:38:15;;;;;;;25.70;15.02;;;2.00;99.90;;;;;;4974786;28;20031;-77
2020/12/03 07:40:41;;;;;;;24.25;15.23;;;2.10;99.90;;;;;;4972344;28;20027;-77
2020/12/03 07:43:27;;;;;;;23.35;14.77;;;2.20;99.90;;;;;;4973209;28;20801;-77
2020/12/03 07:45:53;;;;;;;25.50;15.00;;;2.20;99.90;;;;;;4972872;28;20030;-77
2020/12/03 07:48:22;;;;;;;25.75;15.35;;;2.30;99.90;;;;;;4973964;28;20054;-75
2020/12/03 07:51:01;;;;;;;22.70;14.15;;;2.20;99.90;;;;;;4975393;28;20019;-77
2020/12/03 07:53:30;;;;;;;23.85;14.95;;;2.30;99.90;;;;;;4991607;28;20081;-78
2020/12/03 07:55:57;;;;;;;22.67;14.05;;;2.30;99.90;;;;;;4977632;28;20037;-78
2020/12/03 07:58:36;;;;;;;21.95;14.23;;;2.30;99.90;;;;;;4975057;28;20118;-75
2020/12/03 08:01:22;;;;;;;24.98;15.10;;;2.20;99.90;;;;;;4975458;28;20037;-79
2020/12/03 08:03:48;;;;;;;22.95;13.68;;;2.20;99.90;;;;;;4977420;28;20031;-76
2020/12/03 08:06:26;;;;;;;22.52;14.13;;;2.20;99.90;;;;;;4973357;28;20086;-77
2020/12/03 08:09:01;;;;;;;22.17;13.90;;;2.10;99.90;;;;;;4977128;28;20031;-77
2020/12/03 08:12:06;;;;;;;25.20;14.68;;;2.20;99.90;;;;;;4977475;28;20019;-78
2020/12/03 08:14:36;;;;;;;22.92;13.90;;;2.30;99.90;;;;;;4975760;28;20042;-74
2020/12/03 08:17:16;;;;;;;22.33;14.07;;;2.30;99.90;;;;;;4976154;28;20054;-77
2020/12/03 08:19:42;;;;;;;24.73;15.82;;;2.30;99.90;;;;;;4991192;28;20031;-77
2020/12/03 08:22:26;;;;;;;23.27;14.27;;;2.40;99.90;;;;;;4977812;28;20504;-78
2020/12/03 08:25:20;;;;;;;23.67;14.25;;;2.40;99.90;;;;;;4976972;28;20736;-76
2020/12/03 08:27:58;;;;;;;21.02;13.57;;;2.50;99.90;;;;;;4992732;28;20019;-78
2020/12/03 08:33:12;;;;;;;21.92;14.02;;;2.50;99.90;;;;;;4975484;28;20092;-77
2020/12/03 08:35:39;;;;;;;20.73;13.30;;;2.40;99.90;;;;;;4990621;28;20026;-77
2020/12/03 08:38:05;;;;;;;23.33;14.57;;;2.30;99.90;;;;;;4976815;28;20565;-76
2020/12/03 08:40:33;;;;;;;21.95;14.10;;;2.40;99.90;;;;;;4977347;28;20039;-78
2020/12/03 08:43:03;;;;;;;20.90;13.07;;;2.60;99.90;;;;;;4976306;28;20486;-74
2020/12/03 08:45:31;;;;;;;23.13;13.15;;;2.40;99.90;;;;;;4975900;28;20058;-76
2020/12/03 08:47:58;;;;;;;19.52;13.02;;;2.40;99.90;;;;;;4977552;28;20031;-75
2020/12/03 08:50:23;;;;;;;20.50;13.00;;;2.60;99.90;;;;;;4990172;28;20030;-77
2020/12/03 08:52:49;;;;;;;25.92;13.30;;;2.50;99.90;;;;;;4976500;28;20035;-76
2020/12/03 08:55:15;;;;;;;20.00;12.63;;;3.00;99.90;;;;;;4975968;28;20030;-78
2020/12/03 08:57:43;;;;;;;18.02;12.00;;;2.40;99.90;;;;;;4975111;28;20110;-77
2020/12/03 09:00:18;;;;;;;22.17;14.02;;;2.50;99.90;;;;;;4973824;28;20034;-77
2020/12/03 09:02:44;;;;;;;22.80;12.57;;;2.50;99.90;;;;;;4974318;28;20023;-76
2020/12/03 09:05:13;;;;;;;19.25;12.55;;;2.30;99.90;;;;;;4974066;28;20026;-77
2020/12/03 09:07:44;;;;;;;24.67;13.27;;;2.30;99.90;;;;;;4987922;28;20030;-76
2020/12/03 09:10:10;;;;;;;22.40;13.65;;;2.30;99.90;;;;;;4975602;28;20037;-77
2020/12/03 09:12:39;;;;;;;25.35;14.00;;;2.20;99.90;;;;;;4991761;28;20034;-78
2020/12/03 09:15:06;;;;;;;22.08;13.48;;;2.30;99.90;;;;;;4976364;28;20645;-78
2020/12/03 09:17:39;;;;;;;19.08;12.38;;;2.30;99.90;;;;;;4958356;28;20035;-79
2020/12/03 09:20:09;;;;;;;21.20;12.88;;;2.40;99.90;;;;;;4954846;28;20419;-76
2020/12/03 09:22:39;;;;;;;20.02;12.27;;;2.50;99.90;;;;;;4955229;28;20079;-76
2020/12/03 09:25:07;;;;;;;21.63;12.80;;;2.60;99.90;;;;;;4955509;29;20551;-77
2020/12/03 09:27:43;;;;;;;;;;;2.60;99.90;;;;;;4956761;29;20407;-75
2020/12/03 09:30:35;;;;;;;22.02;12.75;;;2.60;99.90;;;;;;4972234;28;19918;-78
2020/12/03 09:33:03;;;;;;;23.60;13.98;;;2.60;99.90;;;;;;4954340;28;20044;-76
2020/12/03 09:35:30;;;;;;;;;;;2.50;99.90;;;;;;4954371;28;20028;-77
2020/12/03 09:37:59;;;;;;;19.98;12.77;;;2.50;99.90;;;;;;4961422;29;19907;-75
2020/12/03 09:40:26;;;;;;;18.50;12.07;;;2.30;99.90;;;;;;4964011;28;20031;-78
2020/12/03 09:42:52;;;;;;;21.83;12.97;;;2.50;99.90;;;;;;4963074;28;20146;-75
2020/12/03 09:45:24;;;;;;;19.13;11.38;;;2.60;99.90;;;;;;4961598;28;20294;-78
2020/12/03 09:47:52;;;;;;;18.67;11.40;;;2.60;99.90;;;;;;4956738;29;20026;-79
2020/12/03 09:50:21;;;;;;;19.42;11.98;;;2.60;99.90;;;;;;4955408;28;20027;-80
2020/12/03 09:52:49;;;;;;;17.90;10.70;;;2.60;99.90;;;;;;4973023;28;20061;-78
2020/12/03 09:55:15;;;;;;;;;;;2.70;99.90;;;;;;4976060;28;20030;-79
2020/12/03 09:57:58;;;;;;;19.83;10.23;;;2.80;99.90;;;;;;4987884;28;19914;-79
2020/12/03 10:00:32;;;;;;;19.98;10.90;;;2.90;99.90;;;;;;4966347;28;20054;-79
2020/12/03 10:03:16;;;;;;;17.20;10.38;;;3.00;99.90;;;;;;4974143;28;20018;-80
2020/12/03 10:05:58;;;;;;;19.67;11.05;;;3.00;99.90;;;;;;4975514;28;20460;-79
2020/12/03 10:08:42;;;;;;;16.58;9.75;;;3.00;99.90;;;;;;4990975;28;20549;-77
2020/12/03 10:11:14;;;;;;;18.20;10.07;;;2.90;99.90;;;;;;4974698;28;20026;-74
2020/12/03 10:14:21;;;;;;;20.02;10.65;;;2.70;99.90;;;;;;4955295;28;20015;-79
2020/12/03 10:16:51;;;;;;;18.13;10.20;;;2.60;99.90;;;;;;4955967;28;20053;-75
2020/12/03 10:19:18;;;;;;;16.45;10.10;;;2.50;99.90;;;;;;4954613;28;20038;-79
2020/12/03 10:21:55;;;;;;;;;;;2.60;99.90;;;;;;4958881;28;20054;-80
2020/12/03 10:24:38;;;;;;;18.75;9.98;;;2.70;99.90;;;;;;4973149;28;19926;-80
2020/12/03 10:27:11;;;;;;;15.95;10.00;;;2.80;99.90;;;;;;4969787;28;20028;-79
2020/12/03 10:29:45;;;;;;;17.02;9.65;;;2.80;99.90;;;;;;4960406;28;20023;-78
2020/12/03 10:32:16;;;;;;;14.65;9.65;;;2.80;99.90;;;;;;4973383;28;20018;-78
2020/12/03 10:34:47;;;;;;;18.77;10.00;;;2.90;99.90;;;;;;4987916;28;20035;-79
2020/12/03 10:37:28;;;;;;;15.23;9.13;;;2.90;99.90;;;;;;4975130;28;20022;-78
2020/12/03 10:40:05;;;;;;;16.73;9.85;;;2.80;99.90;;;;;;4968671;28;20063;-80
2020/12/03 10:42:45;;;;;;;17.63;9.57;;;2.80;99.90;;;;;;4970320;28;20375;-74
2020/12/03 10:45:16;;;;;;;17.45;9.40;;;2.80;99.90;;;;;;4975733;28;20042;-78
2020/12/03 10:47:50;;;;;;;17.98;9.57;;;2.90;99.90;;;;;;4976122;28;20027;-77
2020/12/03 10:50:18;;;;;;;15.95;8.57;;;2.90;99.90;;;;;;4975493;28;20026;-78
2020/12/03 10:52:45;;;;;;;11.07;6.68;;;3.00;99.90;;;;;;4977113;28;20438;-77
2020/12/03 10:55:18;;;;;;;12.50;7.53;;;2.80;99.90;;;;;;4992658;28;20041;-79
2020/12/03 10:57:57;;;;;;;14.98;8.27;;;2.80;99.90;;;;;;4992631;28;20027;-76
2020/12/03 11:00:23;;;;;;;18.02;8.07;;;2.80;99.90;;;;;;4974267;28;20482;-79
2020/12/03 11:02:52;;;;;;;12.68;7.53;;;2.70;99.90;;;;;;4972633;28;20033;-79
2020/12/03 11:05:18;;;;;;;16.80;7.90;;;2.90;99.90;;;;;;4974976;28;20035;-78
2020/12/03 11:07:54;;;;;;;14.10;8.05;;;3.00;99.90;;;;;;4951033;28;20110;-78
2020/12/03 11:10:21;;;;;;;16.45;8.85;;;3.00;99.90;;;;;;4951525;28;20031;-79
2020/12/03 11:12:49;;;;;;;18.13;9.10;;;2.90;99.90;;;;;;4967182;28;20018;-78
2020/12/03 11:15:20;;;;;;;16.98;8.82;;;2.90;99.90;;;;;;4973671;28;20034;-77
2020/12/03 11:18:19;;;;;;;12.77;7.35;;;3.00;99.90;;;;;;4989037;28;20027;-77
2020/12/03 11:20:49;;;;;;;16.65;8.10;;;3.00;99.90;;;;;;4987642;28;20095;-78
2020/12/03 11:23:23;;;;;;;15.00;8.70;;;3.00;99.90;;;;;;4977720;28;20026;-75
2020/12/03 11:25:51;;;;;;;14.25;8.48;;;3.00;99.90;;;;;;4970461;28;20034;-78
2020/12/03 11:28:29;;;;;;;15.15;8.45;;;3.00;99.90;;;;;;4971282;28;20050;-77
2020/12/03 11:31:02;;;;;;;15.00;8.95;;;3.20;99.90;;;;;;4975030;28;20027;-78
2020/12/03 11:33:51;;;;;;;16.35;8.25;;;3.30;99.90;;;;;;4977989;28;20101;-76
2020/12/03 11:36:17;;;;;;;15.20;9.00;;;3.00;99.90;;;;;;4978219;28;20027;-79
2020/12/03 11:38:54;;;;;;;14.95;9.02;;;2.80;99.90;;;;;;4976886;28;20399;-78
2020/12/03 11:41:31;;;;;;;17.60;9.73;;;3.20;99.90;;;;;;4975706;28;20033;-78
2020/12/03 11:49:31;;;;;;;18.08;9.23;;;3.10;99.90;;;;;;4964950;28;20333;-78
2020/12/03 11:52:12;;;;;;;19.75;8.25;;;3.20;99.90;;;;;;4974823;28;20023;-76
2020/12/03 11:54:38;;;;;;;14.88;8.63;;;3.20;99.90;;;;;;4961493;28;20154;-79
2020/12/03 11:57:04;;;;;;;15.35;8.32;;;3.20;99.90;;;;;;4955641;28;20126;-78
2020/12/03 11:59:32;;;;;;;16.40;8.75;;;3.50;99.90;;;;;;4956785;28;20090;-78
2020/12/03 12:02:10;;;;;;;13.05;8.35;;;3.10;99.90;;;;;;4955517;28;20557;-77
2020/12/03 12:08:11;;;;;;;13.77;8.20;;;3.30;99.90;;;;;;4955679;28;19906;-78
2020/12/03 12:12:35;;;;;;;;;;;3.50;99.90;;;;;;4955501;28;20043;-77
2020/12/03 12:15:02;;;;;;;13.80;7.28;;;3.50;99.90;;;;;;4953318;29;19973;-80
2020/12/03 12:17:30;;;;;;;18.55;9.68;;;3.40;99.90;;;;;;4952299;28;20031;-78
2020/12/03 12:19:57;;;;;;;16.50;8.35;;;3.40;99.90;;;;;;4951252;28;20031;-79
2020/12/03 12:22:23;;;;;;;16.80;9.50;;;3.40;99.90;;;;;;4954000;28;20027;-78
2020/12/03 12:24:48;;;;;;;15.43;9.32;;;3.40;99.90;;;;;;4951855;28;20035;-77
2020/12/03 12:27:14;;;;;;;17.10;7.53;;;3.30;99.90;;;;;;4953698;28;20046;-79
2020/12/03 12:29:40;;;;;;;17.13;9.40;;;3.10;99.90;;;;;;4954161;28;20390;-79
2020/12/03 12:32:06;;;;;;;15.93;9.40;;;3.50;99.90;;;;;;4952850;28;20031;-79
2020/12/03 12:34:32;;;;;;;17.83;9.43;;;3.10;99.90;;;;;;4955705;28;20494;-76
2020/12/03 12:36:59;;;;;;;20.80;11.02;;;3.10;99.90;;;;;;4955242;28;20041;-80
2020/12/03 12:39:25;;;;;;;21.38;10.27;;;3.00;99.90;;;;;;4954773;28;20065;-79
2020/12/03 12:42:03;;;;;;;18.30;9.90;;;3.20;99.90;;;;;;4970377;28;20043;-79
2020/12/03 12:44:29;;;;;;;16.20;10.55;;;3.30;99.90;;;;;;4955313;28;20032;-78
2020/12/03 12:46:59;;;;;;;16.33;9.20;;;3.20;99.90;;;;;;4956213;28;20034;-79
2020/12/03 12:49:25;;;;;;;17.70;10.48;;;3.30;99.90;;;;;;4954588;28;20036;-79
2020/12/03 12:51:52;;;;;;;19.85;10.55;;;3.20;99.90;;;;;;4955933;28;20055;-79
2020/12/03 12:54:18;;;;;;;17.42;10.05;;;3.20;99.90;;;;;;4970716;28;20754;-79
2020/12/03 12:56:46;;;;;;;17.65;10.73;;;3.20;99.90;;;;;;4955696;28;20410;-80
2020/12/03 12:59:13;;;;;;;17.40;10.75;;;3.30;99.90;;;;;;4955113;28;20019;-80
2020/12/03 13:01:43;;;;;;;18.73;9.90;;;3.40;99.90;;;;;;4955178;28;20042;-76
2020/12/03 13:04:08;;;;;;;16.75;10.27;;;3.50;99.90;;;;;;4954409;28;20114;-80
2020/12/03 13:06:34;;;;;;;17.30;9.90;;;3.60;99.90;;;;;;4970234;28;20045;-79
2020/12/03 13:08:59;;;;;;;17.52;9.85;;;3.50;99.90;;;;;;4954321;28;20043;-79
2020/12/03 13:11:25;;;;;;;16.40;10.07;;;3.60;99.90;;;;;;4955069;28;20089;-79
2020/12/03 13:13:51;;;;;;;15.30;9.45;;;3.60;99.90;;;;;;4955293;28;20126;-76
2020/12/03 13:16:16;;;;;;;16.08;10.13;;;3.70;99.90;;;;;;4958121;28;20046;-79
2020/12/03 13:18:42;;;;;;;16.00;9.27;;;3.70;99.90;;;;;;4958365;29;20031;-79
2020/12/03 13:21:08;;;;;;;15.25;8.88;;;3.60;99.90;;;;;;4974057;28;20037;-78
2020/12/03 13:23:35;;;;;;;15.88;9.63;;;3.70;99.90;;;;;;4957289;28;20433;-80
2020/12/03 13:26:01;;;;;;;20.80;10.35;;;3.70;99.90;;;;;;4957353;28;20085;-77
2020/12/03 13:28:27;;;;;;;15.35;9.02;;;3.70;99.90;;;;;;4960003;28;20114;-77